Huntington Beach, California
Current Conditions -  °F | °C
As of 9:53 PM on Thursday 30 Oct 2014 (Local Time) from KSNA Reporting Station
Scattered Clouds Scattered Clouds  
Wind Chill: 68°   Ceiling: Unl
Heat Index: 68°   Visibility: 10mi
Dew Point: 60°   Wind: 0mph
Humidity: 76%   Direction: NA
Pressure: 29.96"   Gusts: NA
Location:  33.68°N, 118°W
Report Text: KSNA 310453Z 00000KT 10SM FEW018 SCT210 20/16 A2996 RMK AO2 SLP143 T02000156
Loading
Personal Weather Stations






























Interactive Weather Map
Tropical Storm Tracking
New forecast layout! Learn more

10-Day Weather Forecast

Advertisements
Track Severe Weather on mobile